sensor_id;sensor_type;location;lat;lon;timestamp;pressure;altitude;pressure_sealevel;temperature;humidity
80640;BME280;69992;60.170;24.692;2023-07-13T00:00:03;100691.20;;;7.29;21.13
80640;BME280;69992;60.170;24.692;2023-07-13T00:02:27;100690.21;;;8.18;21.13
80640;BME280;69992;60.170;24.692;2023-07-13T00:04:53;100688.17;;;8.07;21.13
80640;BME280;69992;60.170;24.692;2023-07-13T00:07:19;100683.66;;;8.05;21.13
80640;BME280;69992;60.170;24.692;2023-07-13T00:09:45;100679.87;;;8.02;21.10
80640;BME280;69992;60.170;24.692;2023-07-13T00:12:22;100681.68;;;8.01;21.09
80640;BME280;69992;60.170;24.692;2023-07-13T00:14:36;100683.68;;;6.98;21.07
80640;BME280;69992;60.170;24.692;2023-07-13T00:17:02;100681.67;;;6.84;21.07
80640;BME280;69992;60.170;24.692;2023-07-13T00:19:27;100673.40;;;7.67;21.09
80640;BME280;69992;60.170;24.692;2023-07-13T00:21:53;100666.88;;;6.70;21.09
80640;BME280;69992;60.170;24.692;2023-07-13T00:24:18;100662.60;;;7.65;21.09
80640;BME280;69992;60.170;24.692;2023-07-13T00:26:44;100653.71;;;8.59;21.08
80640;BME280;69992;60.170;24.692;2023-07-13T00:29:10;100645.35;;;8.53;21.08
80640;BME280;69992;60.170;24.692;2023-07-13T00:31:36;100632.54;;;7.42;21.08
80640;BME280;69992;60.170;24.692;2023-07-13T00:34:01;100624.64;;;7.28;21.09
80640;BME280;69992;60.170;24.692;2023-07-13T00:36:27;100626.36;;;6.14;21.10
80640;BME280;69992;60.170;24.692;2023-07-13T00:38:52;100631.38;;;7.00;21.10
80640;BME280;69992;60.170;24.692;2023-07-13T00:41:18;100634.88;;;8.86;21.09
80640;BME280;69992;60.170;24.692;2023-07-13T00:43:44;100633.58;;;7.79;21.08
80640;BME280;69992;60.170;24.692;2023-07-13T00:46:16;100629.30;;;7.73;21.09
80640;BME280;69992;60.170;24.692;2023-07-13T00:48:36;100625.01;;;7.69;21.06
80640;BME280;69992;60.170;24.692;2023-07-13T00:51:01;100625.46;;;7.65;21.06
80640;BME280;69992;60.170;24.692;2023-07-13T00:53:28;100625.76;;;7.57;21.08
80640;BME280;69992;60.170;24.692;2023-07-13T00:55:53;100628.58;;;7.58;21.08
80640;BME280;69992;60.170;24.692;2023-07-13T00:58:18;100628.60;;;7.59;21.07
80640;BME280;69992;60.170;24.692;2023-07-13T01:00:44;100627.55;;;7.58;21.06
80640;BME280;69992;60.170;24.692;2023-07-13T01:03:09;100628.44;;;7.64;21.04
80640;BME280;69992;60.170;24.692;2023-07-13T01:05:35;100630.02;;;7.59;21.04
80640;BME280;69992;60.170;24.692;2023-07-13T01:08:02;100629.46;;;7.52;21.04
80640;BME280;69992;60.170;24.692;2023-07-13T01:10:26;100627.83;;;7.37;21.04
80640;BME280;69992;60.170;24.692;2023-07-13T01:12:52;100623.41;;;8.23;21.05
80640;BME280;69992;60.170;24.692;2023-07-13T01:15:33;100618.21;;;7.19;21.06
80640;BME280;69992;60.170;24.692;2023-07-13T01:17:43;100617.47;;;7.29;21.01
80640;BME280;69992;60.170;24.692;2023-07-13T01:20:09;100611.70;;;7.19;21.05
80640;BME280;69992;60.170;24.692;2023-07-13T01:22:34;100611.96;;;7.04;21.06
80640;BME280;69992;60.170;24.692;2023-07-13T01:24:59;100612.34;;;6.95;21.05
80640;BME280;69992;60.170;24.692;2023-07-13T01:27:25;100610.65;;;6.86;21.05
80640;BME280;69992;60.170;24.692;2023-07-13T01:29:51;100608.67;;;6.77;21.04
80640;BME280;69992;60.170;24.692;2023-07-13T01:32:17;100608.81;;;6.62;21.05
80640;BME280;69992;60.170;24.692;2023-07-13T01:34:42;100611.37;;;6.55;21.05
80640;BME280;69992;60.170;24.692;2023-07-13T01:37:08;100608.18;;;6.45;21.06
80640;BME280;69992;60.170;24.692;2023-07-13T01:39:33;100605.12;;;7.39;21.05
80640;BME280;69992;60.170;24.692;2023-07-13T01:41:59;100603.48;;;6.34;21.05
80640;BME280;69992;60.170;24.692;2023-07-13T01:44:24;100602.47;;;6.22;21.07
80640;BME280;69992;60.170;24.692;2023-07-13T01:46:50;100604.28;;;7.15;21.06
80640;BME280;69992;60.170;24.692;2023-07-13T01:49:16;100599.60;;;7.07;21.08
80640;BME280;69992;60.170;24.692;2023-07-13T01:51:41;100595.50;;;6.03;21.06
80640;BME280;69992;60.170;24.692;2023-07-13T01:54:07;100593.60;;;6.87;21.08
80640;BME280;69992;60.170;24.692;2023-07-13T01:56:33;100591.92;;;6.84;21.07
80640;BME280;69992;60.170;24.692;2023-07-13T01:58:58;100593.19;;;7.77;21.04
80640;BME280;69992;60.170;24.692;2023-07-13T02:01:24;100590.56;;;7.71;21.08
80640;BME280;69992;60.170;24.692;2023-07-13T02:03:50;100584.56;;;6.73;21.07
80640;BME280;69992;60.170;24.692;2023-07-13T02:06:15;100585.49;;;5.72;21.06
80640;BME280;69992;60.170;24.692;2023-07-13T02:08:41;100591.91;;;6.69;21.03
80640;BME280;69992;60.170;24.692;2023-07-13T02:11:07;100595.75;;;6.68;21.05
80640;BME280;69992;60.170;24.692;2023-07-13T02:13:32;100593.78;;;5.75;21.05
80640;BME280;69992;60.170;24.692;2023-07-13T02:15:58;100592.52;;;5.76;21.03
80640;BME280;69992;60.170;24.692;2023-07-13T02:18:23;100586.66;;;6.72;21.03
80640;BME280;69992;60.170;24.692;2023-07-13T02:20:50;100584.32;;;6.70;21.05
80640;BME280;69992;60.170;24.692;2023-07-13T02:23:15;100584.55;;;6.76;21.03
80640;BME280;69992;60.170;24.692;2023-07-13T02:25:40;100580.18;;;6.88;21.02
80640;BME280;69992;60.170;24.692;2023-07-13T02:28:06;100580.59;;;6.84;21.03
80640;BME280;69992;60.170;24.692;2023-07-13T02:30:33;100581.00;;;7.81;21.07
80640;BME280;69992;60.170;24.692;2023-07-13T02:32:58;100581.41;;;6.95;21.03
80640;BME280;69992;60.170;24.692;2023-07-13T02:35:23;100581.12;;;7.00;21.01
80640;BME280;69992;60.170;24.692;2023-07-13T02:37:49;100580.39;;;7.05;21.04
80640;BME280;69992;60.170;24.692;2023-07-13T02:40:15;100580.63;;;7.12;21.03
80640;BME280;69992;60.170;24.692;2023-07-13T02:42:40;100580.54;;;6.23;21.04
80640;BME280;69992;60.170;24.692;2023-07-13T02:45:07;100581.11;;;6.26;21.06
80640;BME280;69992;60.170;24.692;2023-07-13T02:47:32;100584.10;;;7.37;21.02
80640;BME280;69992;60.170;24.692;2023-07-13T02:49:57;100584.07;;;7.53;21.00
80640;BME280;69992;60.170;24.692;2023-07-13T02:52:23;100580.38;;;7.69;20.99
80640;BME280;69992;60.170;24.692;2023-07-13T02:54:48;100582.60;;;7.76;21.00
80640;BME280;69992;60.170;24.692;2023-07-13T02:57:14;100578.92;;;6.87;20.99
80640;BME280;69992;60.170;24.692;2023-07-13T02:59:40;100575.48;;;6.98;20.99
80640;BME280;69992;60.170;24.692;2023-07-13T03:02:05;100576.50;;;7.04;21.01
80640;BME280;69992;60.170;24.692;2023-07-13T03:04:31;100574.29;;;7.16;21.00
80640;BME280;69992;60.170;24.692;2023-07-13T03:06:57;100572.84;;;7.32;21.00
80640;BME280;69992;60.170;24.692;2023-07-13T03:09:22;100570.71;;;7.49;20.99
80640;BME280;69992;60.170;24.692;2023-07-13T03:11:48;100571.99;;;8.61;21.00
80640;BME280;69992;60.170;24.692;2023-07-13T03:14:14;100577.18;;;7.78;20.99
80640;BME280;69992;60.170;24.692;2023-07-13T03:16:40;100576.60;;;5.99;20.98
80640;BME280;69992;60.170;24.692;2023-07-13T03:19:05;100581.78;;;8.15;20.97
80640;BME280;69992;60.170;24.692;2023-07-13T03:21:31;100583.70;;;8.35;20.96
80640;BME280;69992;60.170;24.692;2023-07-13T03:23:56;100584.25;;;7.58;20.96
80640;BME280;69992;60.170;24.692;2023-07-13T03:26:22;100579.64;;;6.88;20.92
80640;BME280;69992;60.170;24.692;2023-07-13T03:28:48;100576.89;;;8.05;20.90
80640;BME280;69992;60.170;24.692;2023-07-13T03:31:15;100576.17;;;8.23;20.92
80640;BME280;69992;60.170;24.692;2023-07-13T03:33:39;100577.53;;;7.40;20.92
80640;BME280;69992;60.170;24.692;2023-07-13T03:36:06;100577.53;;;8.54;20.92
80640;BME280;69992;60.170;24.692;2023-07-13T03:38:30;100575.88;;;7.80;20.94
80640;BME280;69992;60.170;24.692;2023-07-13T03:40:56;100574.09;;;8.05;20.92
80640;BME280;69992;60.170;24.692;2023-07-13T03:43:21;100575.07;;;8.29;20.91
80640;BME280;69992;60.170;24.692;2023-07-13T03:45:47;100572.26;;;8.52;20.90
80640;BME280;69992;60.170;24.692;2023-07-13T03:48:13;100573.61;;;8.78;20.92
80640;BME280;69992;60.170;24.692;2023-07-13T03:50:38;100572.26;;;9.09;20.88
80640;BME280;69992;60.170;24.692;2023-07-13T03:53:04;100571.86;;;9.41;20.88
80640;BME280;69992;60.170;24.692;2023-07-13T03:55:30;100571.67;;;9.73;20.87
80640;BME280;69992;60.170;24.692;2023-07-13T03:58:00;100572.37;;;9.04;20.89
80640;BME280;69992;60.170;24.692;2023-07-13T04:00:21;100573.87;;;9.38;20.89
80640;BME280;69992;60.170;24.692;2023-07-13T04:02:46;100574.27;;;10.69;20.88
80640;BME280;69992;60.170;24.692;2023-07-13T04:05:12;100573.37;;;10.04;20.88
80640;BME280;69992;60.170;24.692;2023-07-13T04:07:37;100569.40;;;10.39;20.88
80640;BME280;69992;60.170;24.692;2023-07-13T04:10:03;100568.70;;;9.76;20.87
80640;BME280;69992;60.170;24.692;2023-07-13T04:12:28;100564.68;;;10.03;20.88
80640;BME280;69992;60.170;24.692;2023-07-13T04:14:54;100563.39;;;10.38;20.89
80640;BME280;69992;60.170;24.692;2023-07-13T04:17:20;100562.42;;;8.72;20.89
80640;BME280;69992;60.170;24.692;2023-07-13T04:19:45;100560.83;;;11.04;20.87
80640;BME280;69992;60.170;24.692;2023-07-13T04:22:11;100556.97;;;11.37;20.86
80640;BME280;69992;60.170;24.692;2023-07-13T04:24:36;100556.55;;;11.69;20.86
80640;BME280;69992;60.170;24.692;2023-07-13T04:27:01;100555.99;;;10.19;20.82
80640;BME280;69992;60.170;24.692;2023-07-13T04:29:27;100557.18;;;10.45;20.83
80640;BME280;69992;60.170;24.692;2023-07-13T04:31:52;100557.49;;;10.67;20.88
80640;BME280;69992;60.170;24.692;2023-07-13T04:34:18;100560.01;;;11.95;20.90
80640;BME280;69992;60.170;24.692;2023-07-13T04:36:43;100560.61;;;11.31;20.90
80640;BME280;69992;60.170;24.692;2023-07-13T04:39:09;100563.31;;;11.63;20.89
80640;BME280;69992;60.170;24.692;2023-07-13T04:41:34;100565.15;;;11.05;20.88
80640;BME280;69992;60.170;24.692;2023-07-13T04:44:00;100562.59;;;10.44;20.86
80640;BME280;69992;60.170;24.692;2023-07-13T04:46:26;100558.27;;;11.72;20.88
80640;BME280;69992;60.170;24.692;2023-07-13T04:48:51;100556.28;;;12.02;20.89
80640;BME280;69992;60.170;24.692;2023-07-13T04:51:16;100553.32;;;12.34;20.88
80640;BME280;69992;60.170;24.692;2023-07-13T04:53:43;100552.22;;;11.61;20.89
80640;BME280;69992;60.170;24.692;2023-07-13T04:56:08;100551.38;;;10.93;20.90
80640;BME280;69992;60.170;24.692;2023-07-13T04:58:34;100552.41;;;12.18;20.89
80640;BME280;69992;60.170;24.692;2023-07-13T05:01:00;100553.02;;;12.48;20.91
80640;BME280;69992;60.170;24.692;2023-07-13T05:03:24;100552.77;;;13.71;20.90
80640;BME280;69992;60.170;24.692;2023-07-13T05:05:56;100549.67;;;13.01;20.86
80640;BME280;69992;60.170;24.692;2023-07-13T05:08:16;100547.02;;;13.15;20.86
80640;BME280;69992;60.170;24.692;2023-07-13T05:10:41;100540.30;;;12.29;20.88
80640;BME280;69992;60.170;24.692;2023-07-13T05:13:07;100540.52;;;12.41;20.91
80640;BME280;69992;60.170;24.692;2023-07-13T05:15:33;100542.63;;;12.64;20.93
80640;BME280;69992;60.170;24.692;2023-07-13T05:17:58;100541.66;;;13.91;20.91
80640;BME280;69992;60.170;24.692;2023-07-13T05:20:23;100539.89;;;14.13;20.90
80640;BME280;69992;60.170;24.692;2023-07-13T05:22:49;100540.43;;;13.40;20.92
80640;BME280;69992;60.170;24.692;2023-07-13T05:25:15;100539.80;;;12.64;20.91
80640;BME280;69992;60.170;24.692;2023-07-13T05:27:40;100539.82;;;12.85;20.90
80640;BME280;69992;60.170;24.692;2023-07-13T05:30:07;100538.28;;;13.07;20.89
80640;BME280;69992;60.170;24.692;2023-07-13T05:32:31;100539.70;;;13.36;20.89
80640;BME280;69992;60.170;24.692;2023-07-13T05:34:57;100539.34;;;13.65;20.87
80640;BME280;69992;60.170;24.692;2023-07-13T05:37:22;100539.80;;;13.92;20.87
80640;BME280;69992;60.170;24.692;2023-07-13T05:39:48;100540.85;;;14.17;20.85
80640;BME280;69992;60.170;24.692;2023-07-13T05:42:13;100542.67;;;13.41;20.85
80640;BME280;69992;60.170;24.692;2023-07-13T05:44:39;100541.52;;;14.63;20.84
80640;BME280;69992;60.170;24.692;2023-07-13T05:47:05;100541.80;;;14.87;20.84
80640;BME280;69992;60.170;24.692;2023-07-13T05:49:30;100541.43;;;14.09;20.85
80640;BME280;69992;60.170;24.692;2023-07-13T05:51:55;100544.33;;;14.33;20.86
80640;BME280;69992;60.170;24.692;2023-07-13T05:54:21;100545.88;;;14.58;20.85
80640;BME280;69992;60.170;24.692;2023-07-13T05:56:46;100546.77;;;15.73;20.86
80640;BME280;69992;60.170;24.692;2023-07-13T05:59:12;100547.54;;;13.98;20.89
80640;BME280;69992;60.170;24.692;2023-07-13T06:01:37;100547.19;;;14.23;20.90
80640;BME280;69992;60.170;24.692;2023-07-13T06:04:03;100548.31;;;14.48;20.89
80640;BME280;69992;60.170;24.692;2023-07-13T06:06:28;100546.11;;;14.80;20.90
80640;BME280;69992;60.170;24.692;2023-07-13T06:08:54;100544.51;;;15.06;20.89
80640;BME280;69992;60.170;24.692;2023-07-13T06:11:22;100538.23;;;14.31;20.90
80640;BME280;69992;60.170;24.692;2023-07-13T06:13:45;100531.43;;;15.56;20.90
80640;BME280;69992;60.170;24.692;2023-07-13T06:16:11;100527.21;;;15.73;20.90
80640;BME280;69992;60.170;24.692;2023-07-13T06:18:37;100524.92;;;14.88;20.90
80640;BME280;69992;60.170;24.692;2023-07-13T06:21:05;100526.07;;;16.03;20.90
80640;BME280;69992;60.170;24.692;2023-07-13T06:23:27;100531.37;;;15.27;20.89
80640;BME280;69992;60.170;24.692;2023-07-13T06:25:52;100533.68;;;14.46;20.91
80640;BME280;69992;60.170;24.692;2023-07-13T06:28:18;100532.71;;;14.65;20.91
80640;BME280;69992;60.170;24.692;2023-07-13T06:30:43;100532.92;;;15.82;20.92
80640;BME280;69992;60.170;24.692;2023-07-13T06:33:09;100533.77;;;16.92;20.95
80640;BME280;69992;60.170;24.692;2023-07-13T06:35:34;100534.29;;;15.08;20.98
80640;BME280;69992;60.170;24.692;2023-07-13T06:38:00;100534.70;;;15.23;20.99
80640;BME280;69992;60.170;24.692;2023-07-13T06:40:25;100538.59;;;15.48;20.97
80640;BME280;69992;60.170;24.692;2023-07-13T06:42:51;100534.25;;;15.60;20.96
80640;BME280;69992;60.170;24.692;2023-07-13T06:45:17;100534.59;;;15.66;20.98
80640;BME280;69992;60.170;24.692;2023-07-13T06:47:42;100537.03;;;15.85;20.96
80640;BME280;69992;60.170;24.692;2023-07-13T06:50:08;100537.71;;;16.02;20.95
80640;BME280;69992;60.170;24.692;2023-07-13T06:52:33;100537.35;;;16.24;20.94
80640;BME280;69992;60.170;24.692;2023-07-13T06:54:58;100536.27;;;16.41;20.95
80640;BME280;69992;60.170;24.692;2023-07-13T06:57:24;100535.93;;;16.56;20.92
80640;BME280;69992;60.170;24.692;2023-07-13T06:59:50;100531.75;;;16.64;20.92
80640;BME280;69992;60.170;24.692;2023-07-13T07:02:15;100534.50;;;15.80;20.94
80640;BME280;69992;60.170;24.692;2023-07-13T07:04:40;100535.17;;;16.93;20.94
80640;BME280;69992;60.170;24.692;2023-07-13T07:07:06;100535.81;;;17.06;20.96
80640;BME280;69992;60.170;24.692;2023-07-13T07:09:31;100535.32;;;16.26;20.96
80640;BME280;69992;60.170;24.692;2023-07-13T07:11:57;100538.38;;;16.50;20.96
80640;BME280;69992;60.170;24.692;2023-07-13T07:14:22;100538.08;;;17.73;20.94
80640;BME280;69992;60.170;24.692;2023-07-13T07:16:49;100534.84;;;16.97;20.95
80640;BME280;69992;60.170;24.692;2023-07-13T07:19:13;100531.30;;;16.18;20.94
80640;BME280;69992;60.170;24.692;2023-07-13T07:21:39;100531.17;;;18.19;20.95
80640;BME280;69992;60.170;24.692;2023-07-13T07:24:05;100536.41;;;16.38;20.97
80640;BME280;69992;60.170;24.692;2023-07-13T07:26:30;100539.15;;;17.62;20.97
80640;BME280;69992;60.170;24.692;2023-07-13T07:28:55;100538.88;;;16.85;20.97
80640;BME280;69992;60.170;24.692;2023-07-13T07:31:21;100536.22;;;17.06;20.95
80640;BME280;69992;60.170;24.692;2023-07-13T07:33:46;100531.92;;;17.27;20.93
80640;BME280;69992;60.170;24.692;2023-07-13T07:36:12;100530.77;;;16.49;20.93
80640;BME280;69992;60.170;24.692;2023-07-13T07:38:37;100526.58;;;17.65;20.94
80640;BME280;69992;60.170;24.692;2023-07-13T07:41:04;100528.76;;;17.88;20.94
80640;BME280;69992;60.170;24.692;2023-07-13T07:43:28;100528.04;;;18.09;20.93
80640;BME280;69992;60.170;24.692;2023-07-13T07:45:54;100532.06;;;18.28;20.95
80640;BME280;69992;60.170;24.692;2023-07-13T07:48:19;100534.55;;;18.52;20.97
80640;BME280;69992;60.170;24.692;2023-07-13T07:50:45;100533.02;;;18.74;20.95
80640;BME280;69992;60.170;24.692;2023-07-13T07:53:10;100530.89;;;17.86;20.96
80640;BME280;69992;60.170;24.692;2023-07-13T07:55:36;100529.89;;;18.01;20.99
80640;BME280;69992;60.170;24.692;2023-07-13T07:58:01;100528.06;;;17.24;21.03
80640;BME280;69992;60.170;24.692;2023-07-13T08:00:27;100526.71;;;17.49;21.01
80640;BME280;69992;60.170;24.692;2023-07-13T08:02:52;100524.46;;;17.76;21.02
80640;BME280;69992;60.170;24.692;2023-07-13T08:05:18;100518.43;;;17.98;21.01
80640;BME280;69992;60.170;24.692;2023-07-13T08:07:43;100516.98;;;18.24;21.02
80640;BME280;69992;60.170;24.692;2023-07-13T08:10:09;100517.39;;;18.59;21.02
80640;BME280;69992;60.170;24.692;2023-07-13T08:12:34;100517.92;;;17.98;21.00
80640;BME280;69992;60.170;24.692;2023-07-13T08:15:00;100519.83;;;18.30;20.99
80640;BME280;69992;60.170;24.692;2023-07-13T08:17:25;100525.83;;;19.58;20.99
80640;BME280;69992;60.170;24.692;2023-07-13T08:19:51;100528.51;;;19.91;20.98
80640;BME280;69992;60.170;24.692;2023-07-13T08:22:16;100529.90;;;19.23;20.97
80640;BME280;69992;60.170;24.692;2023-07-13T08:24:41;100527.82;;;20.39;20.98
80640;BME280;69992;60.170;24.692;2023-07-13T08:27:07;100524.17;;;19.68;21.01
80640;BME280;69992;60.170;24.692;2023-07-13T08:29:32;100516.80;;;18.95;21.02
80640;BME280;69992;60.170;24.692;2023-07-13T08:31:58;100519.28;;;19.29;21.03
80640;BME280;69992;60.170;24.692;2023-07-13T08:34:23;100512.15;;;19.63;21.01
80640;BME280;69992;60.170;24.692;2023-07-13T08:36:48;100513.39;;;19.84;21.02
80640;BME280;69992;60.170;24.692;2023-07-13T08:39:14;100513.30;;;20.21;21.02
80640;BME280;69992;60.170;24.692;2023-07-13T08:41:39;100516.42;;;20.50;21.02
80640;BME280;69992;60.170;24.692;2023-07-13T08:44:07;100514.80;;;20.85;21.04
80640;BME280;69992;60.170;24.692;2023-07-13T08:46:35;100514.94;;;21.28;21.02
80640;BME280;69992;60.170;24.692;2023-07-13T08:48:57;100514.19;;;20.58;21.02
80640;BME280;69992;60.170;24.692;2023-07-13T08:51:30;100517.88;;;21.00;21.03
80640;BME280;69992;60.170;24.692;2023-07-13T08:53:49;100517.26;;;20.39;21.00
80640;BME280;69992;60.170;24.692;2023-07-13T08:56:18;100515.54;;;20.61;21.02
80640;BME280;69992;60.170;24.692;2023-07-13T08:58:38;100515.87;;;20.93;21.03
80640;BME280;69992;60.170;24.692;2023-07-13T09:01:10;100519.89;;;21.31;21.03
80640;BME280;69992;60.170;24.692;2023-07-13T09:03:36;100517.91;;;21.62;21.03
80640;BME280;69992;60.170;24.692;2023-07-13T09:05:57;100514.94;;;21.04;21.02
80640;BME280;69992;60.170;24.692;2023-07-13T09:08:38;100516.48;;;21.59;21.01
80640;BME280;69992;60.170;24.692;2023-07-13T09:10:46;100518.86;;;22.27;20.96
80640;BME280;69992;60.170;24.692;2023-07-13T09:13:20;100511.46;;;21.84;20.92
80640;BME280;69992;60.170;24.692;2023-07-13T09:15:40;100510.62;;;22.32;20.92
80640;BME280;69992;60.170;24.692;2023-07-13T09:18:04;100511.24;;;22.92;20.90
80640;BME280;69992;60.170;24.692;2023-07-13T09:20:30;100518.26;;;23.50;20.87
80640;BME280;69992;60.170;24.692;2023-07-13T09:22:52;100524.53;;;23.79;20.85
80640;BME280;69992;60.170;24.692;2023-07-13T09:25:24;100531.97;;;23.22;20.87
80640;BME280;69992;60.170;24.692;2023-07-13T09:27:44;100531.34;;;22.69;20.88
80640;BME280;69992;60.170;24.692;2023-07-13T09:30:20;100529.33;;;23.25;20.85
80640;BME280;69992;60.170;24.692;2023-07-13T09:32:34;100529.13;;;23.59;20.87
80640;BME280;69992;60.170;24.692;2023-07-13T09:34:59;100531.47;;;23.91;20.90
80640;BME280;69992;60.170;24.692;2023-07-13T09:37:31;100532.89;;;24.20;20.88
80640;BME280;69992;60.170;24.692;2023-07-13T09:39:50;100528.97;;;24.71;20.88
80640;BME280;69992;60.170;24.692;2023-07-13T09:42:17;100528.74;;;25.42;20.83
80640;BME280;69992;60.170;24.692;2023-07-13T09:44:52;100529.72;;;24.53;20.64
80640;BME280;69992;60.170;24.692;2023-07-13T09:47:15;100528.40;;;26.81;20.26
80640;BME280;69992;60.170;24.692;2023-07-13T09:49:35;100532.16;;;27.12;19.95
80640;BME280;69992;60.170;24.692;2023-07-13T09:51:59;100527.23;;;28.36;19.64
80640;BME280;69992;60.170;24.692;2023-07-13T09:54:24;100530.62;;;28.39;19.43
80640;BME280;69992;60.170;24.692;2023-07-13T09:56:47;100535.85;;;29.89;19.28
80640;BME280;69992;60.170;24.692;2023-07-13T09:59:18;100537.29;;;30.59;19.08
80640;BME280;69992;60.170;24.692;2023-07-13T10:01:38;100532.60;;;31.34;18.94
80640;BME280;69992;60.170;24.692;2023-07-13T10:04:11;100535.22;;;31.62;18.85
80640;BME280;69992;60.170;24.692;2023-07-13T10:06:29;100536.21;;;33.86;18.78
80640;BME280;69992;60.170;24.692;2023-07-13T10:08:56;100533.04;;;31.96;18.67
80640;BME280;69992;60.170;24.692;2023-07-13T10:11:21;100534.45;;;32.54;18.77
80640;BME280;69992;60.170;24.692;2023-07-13T10:13:46;100537.42;;;33.44;18.77
80640;BME280;69992;60.170;24.692;2023-07-13T10:16:10;100536.53;;;34.16;18.81
80640;BME280;69992;60.170;24.692;2023-07-13T10:18:40;100542.22;;;34.63;18.83
80640;BME280;69992;60.170;24.692;2023-07-13T10:21:10;100543.98;;;33.51;18.81
80640;BME280;69992;60.170;24.692;2023-07-13T10:23:30;100548.23;;;34.30;18.76
80640;BME280;69992;60.170;24.692;2023-07-13T10:25:51;100543.71;;;35.03;18.76
80640;BME280;69992;60.170;24.692;2023-07-13T10:28:25;100548.68;;;34.81;18.78
80640;BME280;69992;60.170;24.692;2023-07-13T10:30:43;100548.72;;;34.65;18.74
80640;BME280;69992;60.170;24.692;2023-07-13T10:33:11;100550.33;;;35.57;18.58
80640;BME280;69992;60.170;24.692;2023-07-13T10:35:32;100556.07;;;35.98;18.61
80640;BME280;69992;60.170;24.692;2023-07-13T10:38:01;100556.27;;;35.74;18.57
80640;BME280;69992;60.170;24.692;2023-07-13T10:40:27;100557.09;;;35.32;18.58
80640;BME280;69992;60.170;24.692;2023-07-13T10:42:51;100556.34;;;35.60;18.65
80640;BME280;69992;60.170;24.692;2023-07-13T10:45:15;100559.58;;;35.89;18.69
80640;BME280;69992;60.170;24.692;2023-07-13T10:47:39;100558.47;;;35.74;18.79
80640;BME280;69992;60.170;24.692;2023-07-13T10:50:05;100553.00;;;35.34;18.73
80640;BME280;69992;60.170;24.692;2023-07-13T10:52:41;100553.10;;;34.95;18.86
80640;BME280;69992;60.170;24.692;2023-07-13T10:54:55;100545.20;;;34.77;18.98
80640;BME280;69992;60.170;24.692;2023-07-13T10:57:21;100536.63;;;34.63;19.18
80640;BME280;69992;60.170;24.692;2023-07-13T10:59:48;100531.26;;;33.53;19.54
80640;BME280;69992;60.170;24.692;2023-07-13T11:02:15;100526.64;;;31.83;19.91
80640;BME280;69992;60.170;24.692;2023-07-13T11:04:41;100526.76;;;30.51;20.27
80640;BME280;69992;60.170;24.692;2023-07-13T11:07:10;100520.11;;;29.55;20.52
80640;BME280;69992;60.170;24.692;2023-07-13T11:09:35;100514.62;;;30.68;20.81
80640;BME280;69992;60.170;24.692;2023-07-13T11:11:56;100519.42;;;28.11;21.03
80640;BME280;69992;60.170;24.692;2023-07-13T11:14:26;100512.84;;;29.64;21.22
80640;BME280;69992;60.170;24.692;2023-07-13T11:16:44;100511.98;;;27.34;21.26
80640;BME280;69992;60.170;24.692;2023-07-13T11:21:33;100509.74;;;26.25;21.46
80640;BME280;69992;60.170;24.692;2023-07-13T11:24:03;100509.15;;;27.48;21.53
80640;BME280;69992;60.170;24.692;2023-07-13T11:26:39;100515.04;;;26.65;21.43
80640;BME280;69992;60.170;24.692;2023-07-13T11:28:50;100518.44;;;25.91;21.42
80640;BME280;69992;60.170;24.692;2023-07-13T11:31:16;100517.34;;;25.32;21.55
80640;BME280;69992;60.170;24.692;2023-07-13T11:33:53;100516.60;;;26.94;21.51
80640;BME280;69992;60.170;24.692;2023-07-13T11:36:10;100515.24;;;24.81;21.53
80640;BME280;69992;60.170;24.692;2023-07-13T11:38:35;100514.08;;;26.35;21.46
80640;BME280;69992;60.170;24.692;2023-07-13T11:40:56;100513.23;;;25.10;21.49
80640;BME280;69992;60.170;24.692;2023-07-13T11:43:21;100514.46;;;25.02;21.49
80640;BME280;69992;60.170;24.692;2023-07-13T11:45:47;100512.10;;;26.24;21.43
80640;BME280;69992;60.170;24.692;2023-07-13T11:48:20;100522.19;;;24.95;21.35
80640;BME280;69992;60.170;24.692;2023-07-13T11:50:38;100521.22;;;25.96;21.14
80640;BME280;69992;60.170;24.692;2023-07-13T11:53:03;100519.92;;;27.21;20.94
80640;BME280;69992;60.170;24.692;2023-07-13T11:55:29;100517.41;;;27.79;20.84
80640;BME280;69992;60.170;24.692;2023-07-13T11:57:57;100518.09;;;27.44;20.75
80640;BME280;69992;60.170;24.692;2023-07-13T12:00:23;100520.72;;;28.68;20.68
80640;BME280;69992;60.170;24.692;2023-07-13T12:02:47;100523.47;;;26.87;20.64
80640;BME280;69992;60.170;24.692;2023-07-13T12:05:12;100518.67;;;28.27;20.53
80640;BME280;69992;60.170;24.692;2023-07-13T12:07:35;100513.85;;;28.19;20.41
80640;BME280;69992;60.170;24.692;2023-07-13T12:10:01;100520.86;;;28.99;20.14
80640;BME280;69992;60.170;24.692;2023-07-13T12:12:29;100521.51;;;29.66;20.15
80640;BME280;69992;60.170;24.692;2023-07-13T12:14:52;100525.65;;;28.88;20.13
80640;BME280;69992;60.170;24.692;2023-07-13T12:17:19;100524.90;;;29.55;20.18
80640;BME280;69992;60.170;24.692;2023-07-13T12:19:42;100522.50;;;29.01;20.30
80640;BME280;69992;60.170;24.692;2023-07-13T12:22:10;100520.87;;;29.17;20.42
80640;BME280;69992;60.170;24.692;2023-07-13T12:24:35;100523.01;;;28.25;20.51
80640;BME280;69992;60.170;24.692;2023-07-13T12:27:00;100519.14;;;28.24;20.60
80640;BME280;69992;60.170;24.692;2023-07-13T12:29:23;100523.06;;;26.26;20.72
80640;BME280;69992;60.170;24.692;2023-07-13T12:31:49;100521.53;;;26.37;20.85
80640;BME280;69992;60.170;24.692;2023-07-13T12:34:16;100523.01;;;26.44;20.95